createdAt,value
2019-02-26T00:01:18.519Z,77.00
2019-02-26T00:03:46.416Z,76.90
2019-02-26T00:06:16.773Z,77.30
2019-02-26T00:08:49.526Z,76.70
2019-02-26T00:11:18.271Z,76.60
2019-02-26T00:13:49.846Z,77.70
2019-02-26T00:16:20.544Z,76.70
2019-02-26T00:18:50.163Z,76.90
2019-02-26T00:21:20.472Z,77.80
2019-02-26T00:23:52.951Z,77.40
2019-02-26T00:26:22.433Z,77.00
2019-02-26T00:28:52.033Z,76.80
2019-02-26T00:31:23.819Z,77.50
2019-02-26T00:33:52.794Z,77.90
2019-02-26T00:36:22.333Z,77.80
2019-02-26T00:38:51.833Z,77.40
2019-02-26T00:41:22.887Z,77.60
2019-02-26T00:43:55.349Z,77.90
2019-02-26T00:46:28.118Z,77.70
2019-02-26T00:48:59.067Z,78.60
2019-02-26T00:51:28.736Z,77.90
2019-02-26T00:53:59.861Z,78.40
2019-02-26T00:56:31.511Z,77.10
2019-02-26T00:59:00.584Z,77.40
2019-02-26T01:01:30.090Z,78.50
2019-02-26T01:03:59.684Z,77.00
2019-02-26T01:06:31.055Z,76.70
2019-02-26T01:09:01.977Z,77.90
2019-02-26T01:11:31.602Z,77.50
2019-02-26T01:14:01.118Z,76.90
2019-02-26T01:16:30.604Z,77.80
2019-02-26T01:19:00.087Z,77.60
2019-02-26T01:21:31.133Z,77.60
2019-02-26T01:24:01.726Z,78.30
2019-02-26T01:26:31.963Z,78.30
2019-02-26T01:29:01.520Z,78.80
2019-02-26T01:31:32.121Z,78.50
2019-02-26T01:34:02.294Z,79.00
2019-02-26T01:36:31.830Z,78.90
2019-02-26T01:39:01.327Z,80.10
2019-02-26T01:41:30.837Z,78.00
2019-02-26T01:44:00.439Z,78.60
2019-02-26T01:46:30.458Z,79.20
2019-02-26T01:49:02.089Z,78.00
2019-02-26T01:51:32.265Z,78.80
2019-02-26T01:54:01.759Z,78.50
2019-02-26T01:56:31.247Z,79.00
2019-02-26T01:59:02.339Z,78.50
2019-02-26T02:01:31.934Z,79.20
2019-02-26T02:04:01.430Z,77.70
2019-02-26T02:06:33.106Z,78.10
2019-02-26T02:09:02.098Z,78.00
2019-02-26T02:11:33.326Z,78.70
2019-02-26T02:14:04.232Z,79.20
2019-02-26T02:16:33.924Z,79.50
2019-02-26T02:19:03.411Z,78.80
2019-02-26T02:21:35.524Z,78.30
2019-02-26T02:24:08.239Z,78.50
2019-02-26T02:26:36.033Z,77.70
2019-02-26T02:29:05.571Z,77.80
2019-02-26T02:31:37.223Z,78.80
2019-02-26T02:34:06.259Z,77.60
2019-02-26T02:36:35.775Z,77.90
2019-02-26T02:39:10.373Z,78.30
2019-02-26T02:41:39.361Z,77.40
2019-02-26T02:44:12.374Z,78.10
2019-02-26T02:46:42.480Z,77.90
2019-02-26T02:49:13.209Z,77.80
2019-02-26T02:51:43.370Z,78.20
2019-02-26T02:54:15.316Z,78.20
2019-02-26T02:56:44.433Z,77.70
2019-02-26T02:59:14.651Z,77.30
2019-02-26T03:01:48.347Z,77.70
2019-02-26T03:04:19.506Z,77.60
2019-02-26T03:06:47.520Z,78.40
2019-02-26T03:09:17.801Z,77.90
2019-02-26T03:11:49.709Z,78.80
2019-02-26T03:14:19.346Z,78.10
2019-02-26T03:16:51.403Z,79.40
2019-02-26T03:19:20.048Z,78.40
2019-02-26T03:21:52.622Z,79.00
2019-02-26T03:24:25.386Z,79.20
2019-02-26T03:26:54.639Z,79.00
2019-02-26T03:29:24.674Z,78.50
2019-02-26T03:31:55.584Z,78.60
2019-02-26T03:34:25.970Z,78.40
2019-02-26T03:36:57.387Z,77.60
2019-02-26T03:39:26.783Z,78.40
2019-02-26T03:41:56.481Z,78.70
2019-02-26T03:44:29.577Z,78.70
2019-02-26T03:46:57.232Z,78.40
2019-02-26T03:49:27.240Z,79.00
2019-02-26T03:51:59.435Z,78.40
2019-02-26T03:54:27.899Z,79.40
2019-02-26T03:56:57.640Z,78.70
2019-02-26T03:59:27.136Z,77.10
2019-02-26T04:01:56.688Z,77.90
2019-02-26T04:04:28.334Z,77.40
2019-02-26T04:06:58.496Z,77.50
2019-02-26T04:09:28.511Z,77.30
2019-02-26T04:11:58.021Z,77.70
2019-02-26T04:14:28.796Z,77.50
2019-02-26T04:17:00.737Z,77.20
2019-02-26T04:19:29.844Z,77.00
2019-02-26T04:22:30.534Z,77.40
2019-02-26T04:25:06.387Z,76.80
2019-02-26T04:28:33.128Z,77.40
2019-02-26T04:31:27.879Z,77.60
2019-02-26T04:34:19.521Z,76.80
2019-02-26T04:37:32.738Z,76.50
2019-02-26T04:40:41.159Z,76.40
2019-02-26T04:44:03.770Z,77.20
2019-02-26T04:47:00.376Z,76.90
2019-02-26T04:49:33.396Z,76.60
2019-02-26T04:52:03.052Z,76.80
2019-02-26T04:54:33.720Z,76.10
2019-02-26T04:57:04.591Z,76.30
2019-02-26T04:59:34.806Z,76.60
2019-02-26T05:02:05.577Z,76.90
2019-02-26T05:04:36.901Z,76.00
2019-02-26T05:07:08.064Z,76.50
2019-02-26T05:09:37.377Z,76.20
2019-02-26T05:12:28.248Z,77.00
2019-02-26T05:14:57.154Z,76.50
2019-02-26T05:17:30.123Z,76.20
2019-02-26T05:19:57.830Z,76.40
2019-02-26T05:22:29.790Z,76.50
2019-02-26T05:24:58.453Z,76.10
2019-02-26T05:27:27.973Z,76.50
2019-02-26T05:29:57.559Z,76.60
2019-02-26T05:32:29.857Z,76.10
2019-02-26T05:34:58.260Z,75.50
2019-02-26T05:37:29.041Z,75.10
2019-02-26T05:39:58.871Z,75.60
2019-02-26T05:42:28.423Z,76.20
2019-02-26T05:45:00.627Z,75.50
2019-02-26T05:47:29.128Z,75.90
2019-02-26T05:49:59.541Z,78.50
2019-02-26T05:52:30.862Z,77.40
2019-02-26T05:55:01.023Z,71.90
2019-02-26T05:57:32.613Z,72.30
2019-02-26T06:00:01.804Z,72.50
2019-02-26T06:02:31.270Z,72.20
2019-02-26T06:05:00.793Z,72.20
2019-02-26T06:07:33.625Z,72.70
2019-02-26T06:10:01.639Z,72.60
2019-02-26T06:12:32.644Z,73.10
2019-02-26T06:15:07.379Z,73.70
2019-02-26T06:17:35.195Z,73.50
2019-02-26T06:20:16.406Z,74.50
2019-02-26T06:22:45.916Z,75.70
2019-02-26T06:25:20.549Z,74.50
2019-02-26T06:27:46.622Z,74.60
2019-02-26T06:30:16.208Z,74.00
2019-02-26T06:32:45.822Z,75.00
2019-02-26T06:35:19.001Z,75.20
2019-02-26T06:37:47.607Z,73.60
2019-02-26T06:40:17.199Z,74.00
2019-02-26T06:42:46.740Z,74.40
2019-02-26T06:45:16.969Z,73.70
2019-02-26T06:47:48.436Z,73.80
2019-02-26T06:50:18.940Z,73.40
2019-02-26T06:52:50.594Z,72.50
2019-02-26T06:55:19.755Z,74.20
2019-02-26T06:57:50.839Z,73.90
2019-02-26T07:00:23.801Z,73.80
2019-02-26T07:02:51.616Z,73.50
2019-02-26T07:05:23.873Z,74.10
2019-02-26T07:07:54.087Z,73.80
2019-02-26T07:10:26.130Z,74.60
2019-02-26T07:12:54.642Z,73.80
2019-02-26T07:15:24.231Z,74.60
2019-02-26T07:17:53.766Z,74.00
2019-02-26T07:20:23.322Z,74.40
2019-02-26T07:22:52.827Z,73.80
2019-02-26T07:25:22.338Z,74.50
2019-02-26T07:27:53.629Z,75.00
2019-02-26T07:30:22.999Z,74.50
2019-02-26T07:32:52.502Z,74.90
2019-02-26T07:35:22.043Z,75.10
2019-02-26T07:37:52.368Z,75.30
2019-02-26T07:40:24.607Z,75.30
2019-02-26T07:42:53.847Z,75.40
2019-02-26T07:45:24.983Z,74.50
2019-02-26T07:47:56.406Z,74.90
2019-02-26T07:50:25.885Z,76.60
2019-02-26T07:52:57.592Z,75.30
2019-02-26T07:55:27.584Z,75.60
2019-02-26T07:57:57.358Z,76.10
2019-02-26T08:00:26.853Z,76.30
2019-02-26T08:02:57.781Z,76.10
2019-02-26T08:05:28.895Z,75.80
2019-02-26T08:07:58.610Z,76.30
2019-02-26T08:10:28.100Z,76.20
2019-02-26T08:12:59.217Z,76.10
2019-02-26T08:15:30.297Z,77.00
2019-02-26T08:18:01.294Z,77.50
2019-02-26T08:20:33.014Z,77.50
2019-02-26T08:23:02.347Z,77.50
2019-02-26T08:25:31.852Z,78.40
2019-02-26T08:28:01.449Z,77.40
2019-02-26T08:30:30.990Z,77.60
2019-02-26T08:33:02.679Z,77.80
2019-02-26T08:35:31.731Z,78.20
2019-02-26T08:38:01.247Z,78.10
2019-02-26T08:40:30.740Z,78.00
2019-02-26T08:43:00.281Z,79.00
2019-02-26T08:45:31.021Z,79.00
2019-02-26T08:48:00.798Z,78.70
2019-02-26T08:50:33.038Z,78.10
2019-02-26T08:53:01.567Z,78.70
2019-02-26T08:55:31.069Z,79.10
2019-02-26T08:58:00.602Z,79.00
2019-02-26T09:00:30.135Z,79.40
2019-02-26T09:02:59.702Z,79.20
2019-02-26T09:05:31.734Z,79.00
2019-02-26T09:08:00.491Z,79.90
2019-02-26T09:10:30.007Z,80.70
2019-02-26T09:12:59.536Z,80.00
2019-02-26T09:15:31.235Z,79.90
2019-02-26T09:18:00.186Z,80.10
2019-02-26T09:20:29.743Z,80.20
2019-02-26T09:23:01.434Z,81.10
2019-02-26T09:25:31.596Z,80.50
2019-02-26T09:28:01.847Z,81.00
2019-02-26T09:30:33.421Z,81.00
2019-02-26T09:33:03.422Z,81.10
2019-02-26T09:35:33.656Z,81.40
2019-02-26T09:38:03.230Z,81.30
2019-02-26T09:40:34.410Z,80.70
2019-02-26T09:43:05.958Z,80.10
2019-02-26T09:45:35.063Z,81.20
2019-02-26T09:48:04.556Z,80.60
2019-02-26T09:50:36.097Z,81.40
2019-02-26T09:53:05.333Z,80.70
2019-02-26T09:55:34.908Z,81.10
2019-02-26T09:58:04.522Z,80.50
2019-02-26T10:00:34.019Z,81.20
2019-02-26T10:03:05.279Z,81.20
2019-02-26T10:05:34.713Z,80.50
2019-02-26T10:08:05.338Z,81.00
2019-02-26T10:10:39.070Z,80.90
2019-02-26T10:13:06.094Z,80.50
2019-02-26T10:15:37.381Z,80.50
2019-02-26T10:18:09.338Z,80.00
2019-02-26T10:20:37.993Z,79.70
2019-02-26T10:23:07.520Z,80.00
2019-02-26T10:25:38.659Z,80.00
2019-02-26T10:28:10.422Z,80.10
2019-02-26T10:30:41.578Z,81.00
2019-02-26T10:33:10.514Z,80.50
2019-02-26T10:35:44.359Z,80.70
2019-02-26T10:38:11.747Z,80.70
2019-02-26T10:40:53.389Z,80.50
2019-02-26T10:43:12.517Z,80.90
2019-02-26T10:45:44.758Z,81.60
2019-02-26T10:48:13.794Z,81.70
2019-02-26T10:50:46.921Z,81.30
2019-02-26T10:53:18.939Z,81.10
2019-02-26T10:55:46.676Z,81.40
2019-02-26T10:58:16.204Z,81.70
2019-02-26T11:00:46.892Z,81.40
2019-02-26T11:03:17.409Z,81.40
2019-02-26T11:05:48.746Z,81.20
2019-02-26T11:08:20.559Z,81.90
2019-02-26T11:10:52.201Z,81.60
2019-02-26T11:13:24.928Z,81.50
2019-02-26T11:15:53.850Z,81.80
2019-02-26T11:21:05.333Z,81.60
2019-02-26T11:23:36.403Z,81.40
2019-02-26T11:26:06.698Z,80.80
2019-02-26T11:28:40.010Z,81.00
2019-02-26T11:31:09.010Z,80.40
2019-02-26T11:33:39.722Z,81.50
2019-02-26T11:36:11.128Z,79.40
2019-02-26T11:38:42.111Z,80.60
2019-02-26T11:41:11.560Z,78.90
2019-02-26T11:43:41.093Z,79.20
2019-02-26T11:46:10.598Z,79.30
2019-02-26T11:48:40.090Z,80.70
2019-02-26T11:51:09.621Z,80.20
2019-02-26T11:53:39.161Z,80.90
2019-02-26T11:56:09.082Z,82.40
2019-02-26T11:58:38.644Z,80.60
2019-02-26T12:01:13.769Z,82.00
2019-02-26T12:03:44.005Z,81.00
2019-02-26T12:06:13.567Z,79.50
2019-02-26T12:08:44.807Z,80.90
2019-02-26T12:11:17.704Z,79.90
2019-02-26T12:13:47.328Z,79.70
2019-02-26T12:16:16.519Z,80.50
2019-02-26T12:18:47.017Z,81.20
2019-02-26T12:21:16.668Z,78.70
2019-02-26T12:23:46.796Z,79.20
2019-02-26T12:26:18.988Z,77.90
2019-02-26T12:28:47.521Z,78.70
2019-02-26T12:31:16.998Z,79.80
2019-02-26T12:33:46.517Z,79.80
2019-02-26T12:36:16.015Z,78.90
2019-02-26T12:38:48.175Z,78.30
2019-02-26T12:41:19.083Z,78.20
2019-02-26T12:43:47.854Z,79.10
2019-02-26T12:46:19.206Z,75.70
2019-02-26T12:48:50.338Z,75.30
2019-02-26T12:51:22.482Z,77.40
2019-02-26T12:53:50.878Z,76.60
2019-02-26T12:56:21.491Z,78.50
2019-02-26T12:58:54.540Z,79.20
2019-02-26T13:01:23.171Z,79.70
2019-02-26T13:03:55.059Z,78.40
2019-02-26T13:06:23.898Z,79.60
2019-02-26T13:08:53.387Z,78.40
2019-02-26T13:11:24.943Z,80.40
2019-02-26T13:13:54.250Z,78.90
2019-02-26T13:16:23.804Z,77.50
2019-02-26T13:18:58.540Z,78.10
2019-02-26T13:21:24.504Z,76.60
2019-02-26T13:23:58.431Z,76.50
2019-02-26T13:26:25.182Z,75.80
2019-02-26T13:28:56.093Z,75.30
2019-02-26T13:31:25.837Z,77.00
2019-02-26T13:33:55.446Z,77.00
2019-02-26T13:36:24.994Z,75.30
2019-02-26T13:38:54.487Z,75.00
2019-02-26T13:43:55.181Z,74.30
2019-02-26T13:46:24.723Z,72.50
2019-02-26T13:48:54.245Z,69.10
2019-02-26T13:51:23.760Z,68.60
2019-02-26T13:53:53.251Z,71.10
2019-02-26T13:56:22.899Z,71.20
2019-02-26T13:58:52.417Z,72.10
2019-02-26T14:01:22.019Z,73.70
2019-02-26T14:03:51.541Z,72.50
2019-02-26T14:06:21.036Z,69.00
2019-02-26T14:08:50.615Z,69.60
2019-02-26T14:11:20.144Z,69.60
2019-02-26T14:13:50.115Z,72.40
2019-02-26T14:16:19.679Z,73.20
2019-02-26T14:18:49.250Z,74.10
2019-02-26T14:21:18.785Z,74.80
2019-02-26T14:23:48.282Z,75.00
2019-02-26T14:26:17.891Z,74.90
2019-02-26T14:28:50.377Z,74.80
2019-02-26T14:31:20.159Z,73.30
2019-02-26T14:33:49.784Z,73.80
2019-02-26T14:36:19.346Z,75.10
2019-02-26T14:38:48.853Z,75.00
2019-02-26T14:41:18.379Z,75.90
2019-02-26T14:43:47.875Z,74.40
2019-02-26T14:46:17.375Z,74.60
2019-02-26T14:48:46.904Z,75.40
2019-02-26T14:51:17.773Z,74.90
2019-02-26T14:53:49.147Z,74.60
2019-02-26T14:56:18.862Z,74.60
2019-02-26T14:58:49.465Z,74.30
2019-02-26T15:01:18.969Z,74.70
2019-02-26T15:03:48.482Z,74.60
2019-02-26T15:06:17.972Z,74.10
2019-02-26T15:08:47.472Z,74.90
2019-02-26T15:11:17.021Z,74.40
2019-02-26T15:13:46.541Z,75.00
2019-02-26T15:16:16.063Z,74.00
2019-02-26T15:18:45.599Z,73.70
2019-02-26T15:21:15.173Z,74.50
2019-02-26T15:23:44.679Z,74.80
2019-02-26T15:26:14.211Z,73.90
2019-02-26T15:28:43.811Z,73.30
2019-02-26T15:31:13.323Z,73.50
2019-02-26T15:33:42.863Z,73.90
2019-02-26T15:36:12.361Z,73.80
2019-02-26T15:38:41.880Z,74.00
2019-02-26T15:41:11.424Z,74.80
2019-02-26T15:43:40.922Z,73.80
2019-02-26T15:46:16.040Z,73.90
2019-02-26T15:48:45.549Z,74.20
2019-02-26T15:51:19.902Z,73.80
2019-02-26T15:53:46.468Z,73.10
2019-02-26T15:56:15.988Z,73.00
2019-02-26T15:58:45.555Z,72.80
2019-02-26T16:01:17.622Z,72.90
2019-02-26T16:03:53.954Z,73.70
2019-02-26T16:06:23.567Z,72.70
2019-02-26T16:08:53.102Z,72.60
2019-02-26T16:11:25.587Z,72.60
2019-02-26T16:14:02.789Z,72.70
2019-02-26T16:16:41.576Z,72.60
2019-02-26T16:19:17.284Z,71.40
2019-02-26T16:21:53.175Z,69.80
2019-02-26T16:24:27.677Z,70.00
2019-02-26T16:27:01.709Z,70.00
2019-02-26T16:29:40.899Z,68.80
2019-02-26T16:32:16.565Z,68.20
2019-02-26T16:34:46.178Z,68.10
2019-02-26T16:39:52.381Z,67.30
2019-02-26T16:42:25.859Z,69.20
2019-02-26T16:44:58.591Z,70.30
2019-02-26T16:47:27.353Z,70.60
2019-02-26T16:49:58.653Z,71.50
2019-02-26T16:52:28.513Z,71.70
2019-02-26T16:54:58.177Z,71.20
2019-02-26T16:57:33.580Z,71.00
2019-02-26T17:00:16.302Z,71.60
2019-02-26T17:02:52.584Z,71.20
2019-02-26T17:05:22.335Z,71.10
2019-02-26T17:07:51.995Z,71.20
2019-02-26T17:10:21.927Z,71.80
2019-02-26T17:12:55.102Z,72.40
2019-02-26T17:15:30.378Z,72.30
2019-02-26T17:18:00.018Z,72.00
2019-02-26T17:20:29.698Z,71.80
2019-02-26T17:22:59.422Z,71.60
2019-02-26T17:25:29.170Z,70.90
2019-02-26T17:27:58.816Z,71.90
2019-02-26T17:30:28.489Z,71.40
2019-02-26T17:32:58.249Z,71.00
2019-02-26T17:35:29.555Z,71.60
2019-02-26T17:37:59.454Z,72.40
2019-02-26T17:40:29.249Z,71.80
2019-02-26T17:42:59.614Z,72.40
2019-02-26T17:45:29.297Z,73.70
2019-02-26T17:47:58.912Z,73.80
2019-02-26T17:50:33.110Z,73.30
2019-02-26T17:53:04.028Z,72.60
2019-02-26T17:55:35.881Z,71.60
2019-02-26T17:58:09.817Z,72.30
2019-02-26T18:00:40.829Z,72.10
2019-02-26T18:03:10.531Z,72.20
2019-02-26T18:05:50.659Z,71.60
2019-02-26T18:08:11.429Z,72.00
2019-02-26T18:10:41.084Z,72.40
2019-02-26T18:13:10.692Z,72.90
2019-02-26T18:15:40.304Z,72.70
2019-02-26T18:18:09.949Z,72.50
2019-02-26T18:27:02.374Z,71.90
2019-02-26T18:29:32.063Z,71.80
2019-02-26T18:32:01.692Z,72.20
2019-02-26T18:34:31.450Z,72.70
2019-02-26T18:37:01.552Z,72.50
2019-02-26T18:39:32.493Z,72.60
2019-02-26T18:42:02.279Z,72.80
2019-02-26T18:44:31.864Z,72.40
2019-02-26T18:47:01.510Z,72.80
2019-02-26T18:49:58.219Z,72.20
2019-02-26T18:52:27.866Z,72.20
2019-02-26T18:54:57.520Z,72.10
2019-02-26T18:57:27.715Z,72.00
2019-02-26T19:00:05.712Z,72.40
2019-02-26T19:02:42.565Z,71.80
2019-02-26T19:05:21.079Z,71.40
2019-02-26T19:07:52.039Z,71.30
2019-02-26T19:10:23.466Z,70.40
2019-02-26T19:12:53.696Z,70.90
2019-02-26T19:15:23.353Z,70.40
2019-02-26T19:17:54.613Z,70.10
2019-02-26T19:20:26.446Z,69.80
2019-02-26T19:22:58.532Z,70.10
2019-02-26T19:25:27.447Z,70.30
2019-02-26T19:27:57.218Z,70.60
2019-02-26T19:30:26.904Z,70.60
2019-02-26T19:32:56.532Z,70.70
2019-02-26T19:35:26.190Z,70.10
2019-02-26T19:38:02.462Z,70.00
2019-02-26T19:40:38.676Z,70.70
2019-02-26T19:43:10.199Z,71.60
2019-02-26T19:45:43.683Z,71.90
2019-02-26T19:48:13.493Z,71.40
2019-02-26T19:50:47.849Z,71.90
2019-02-26T19:53:18.452Z,71.60
2019-02-26T19:55:49.684Z,71.20
2019-02-26T19:58:21.452Z,71.50
2019-02-26T20:00:52.994Z,71.70
2019-02-26T20:03:22.428Z,71.60
2019-02-26T20:05:52.037Z,71.80
2019-02-26T20:08:21.736Z,72.00
2019-02-26T20:10:53.904Z,71.90
2019-02-26T20:13:23.584Z,71.60
2019-02-26T20:15:54.839Z,71.90
2019-02-26T20:18:26.726Z,71.60
2019-02-26T20:20:56.492Z,72.20
2019-02-26T20:23:26.145Z,71.70
2019-02-26T20:25:56.016Z,71.40
2019-02-26T20:28:25.827Z,72.00
2019-02-26T20:30:57.690Z,71.60
2019-02-26T20:33:27.283Z,71.90
2019-02-26T20:35:59.266Z,71.40
2019-02-26T20:38:35.080Z,71.00
2019-02-26T20:41:03.584Z,70.90
2019-02-26T20:43:36.908Z,71.30
2019-02-26T20:46:07.420Z,71.80
2019-02-26T20:48:39.798Z,71.40
2019-02-26T20:51:11.032Z,71.10
2019-02-26T20:53:43.358Z,72.10
2019-02-26T20:56:14.404Z,71.40
2019-02-26T20:58:44.830Z,71.80
2019-02-26T21:01:15.696Z,71.20
2019-02-26T21:03:45.593Z,71.60
2019-02-26T21:06:18.083Z,71.20
2019-02-26T21:08:48.397Z,71.60
2019-02-26T21:11:22.461Z,71.70
2019-02-26T21:13:49.515Z,71.70
2019-02-26T21:16:20.940Z,72.10
2019-02-26T21:18:51.254Z,71.60
2019-02-26T21:21:20.924Z,71.80
2019-02-26T21:23:53.054Z,72.10
2019-02-26T21:26:22.929Z,72.10
2019-02-26T21:28:53.606Z,71.70
2019-02-26T21:31:23.210Z,72.10
2019-02-26T21:33:52.876Z,71.80
2019-02-26T21:36:22.546Z,72.10
2019-02-26T21:38:52.484Z,71.30
2019-02-26T21:41:23.553Z,71.70
2019-02-26T21:43:53.965Z,70.90
2019-02-26T21:46:23.564Z,71.20
2019-02-26T21:48:53.205Z,70.90
2019-02-26T21:51:22.868Z,71.10
2019-02-26T21:53:52.612Z,71.10
2019-02-26T21:56:22.272Z,71.60
2019-02-26T21:58:51.926Z,71.20
2019-02-26T22:01:21.548Z,71.80
2019-02-26T22:03:52.031Z,70.90
2019-02-26T22:06:21.712Z,71.10
2019-02-26T22:08:51.335Z,72.40
2019-02-26T22:11:20.988Z,71.60
2019-02-26T22:13:50.692Z,72.10
2019-02-26T22:16:21.743Z,71.50
2019-02-26T22:18:52.021Z,71.90
2019-02-26T22:21:24.142Z,72.20
2019-02-26T22:23:57.697Z,71.40
2019-02-26T22:26:27.408Z,71.50
2019-02-26T22:28:57.236Z,71.50
2019-02-26T22:31:28.960Z,71.60
2019-02-26T22:33:59.379Z,71.40
2019-02-26T22:36:33.997Z,71.40
2019-02-26T22:39:06.541Z,71.60
2019-02-26T22:41:39.594Z,70.90
2019-02-26T22:44:09.757Z,71.60
2019-02-26T22:46:42.518Z,72.40
2019-02-26T22:49:12.444Z,71.50
2019-02-26T22:51:42.132Z,71.30
2019-02-26T22:54:11.819Z,71.60
2019-02-26T22:56:41.409Z,71.70
2019-02-26T22:59:11.018Z,72.00
2019-02-26T23:01:45.229Z,70.80
2019-02-26T23:04:19.687Z,71.60
2019-02-26T23:06:50.060Z,72.10
2019-02-26T23:09:21.479Z,71.40
2019-02-26T23:11:51.267Z,71.40
2019-02-26T23:14:21.894Z,71.70
2019-02-26T23:16:52.039Z,71.60
2019-02-26T23:19:22.988Z,71.80
2019-02-26T23:21:52.824Z,72.20
2019-02-26T23:24:22.564Z,71.80
2019-02-26T23:26:58.455Z,71.60
2019-02-26T23:29:28.631Z,71.10
2019-02-26T23:31:59.945Z,71.20
2019-02-26T23:34:31.666Z,71.30
2019-02-26T23:37:01.487Z,72.20
2019-02-26T23:39:31.184Z,71.50
2019-02-26T23:42:00.824Z,71.70
2019-02-26T23:44:50.900Z,72.30
2019-02-26T23:47:19.687Z,71.80
2019-02-26T23:49:51.436Z,71.60
2019-02-26T23:52:21.144Z,71.40
2019-02-26T23:54:50.911Z,71.80
2019-02-26T23:57:22.724Z,71.80
2019-02-26T23:59:51.812Z,71.60
